createdAt,value
2019-01-15T00:01:47.555Z,8.50
2019-01-15T00:04:17.806Z,11.43
2019-01-15T00:06:48.486Z,13.37
2019-01-15T00:09:19.173Z,10.97
2019-01-15T00:11:49.878Z,11.00
2019-01-15T00:14:20.388Z,11.27
2019-01-15T00:16:51.000Z,11.27
2019-01-15T00:19:21.677Z,11.40
2019-01-15T00:21:52.381Z,10.60
2019-01-15T00:24:23.014Z,8.93
2019-01-15T00:26:53.544Z,9.23
2019-01-15T00:29:25.713Z,10.33
2019-01-15T00:31:56.334Z,9.50
2019-01-15T00:34:26.967Z,10.63
2019-01-15T00:36:57.640Z,9.93
2019-01-15T00:39:28.232Z,9.20
2019-01-15T00:41:58.907Z,15.40
2019-01-15T00:44:29.717Z,11.83
2019-01-15T00:47:00.344Z,12.73
2019-01-15T00:49:30.617Z,18.30
2019-01-15T00:52:01.284Z,12.73
2019-01-15T00:54:33.152Z,11.87
2019-01-15T00:57:03.883Z,11.20
2019-01-15T00:59:36.052Z,16.13
2019-01-15T01:02:08.975Z,11.93
2019-01-15T01:04:39.169Z,15.40
2019-01-15T01:07:09.801Z,11.43
2019-01-15T01:09:41.031Z,14.23
2019-01-15T01:12:12.059Z,13.07
2019-01-15T01:14:42.700Z,13.80
2019-01-15T01:17:13.268Z,11.83
2019-01-15T01:19:43.606Z,12.40
2019-01-15T01:22:17.286Z,15.33
2019-01-15T01:24:47.907Z,18.03
2019-01-15T01:27:18.537Z,12.90
2019-01-15T01:29:51.599Z,10.27
2019-01-15T01:32:21.143Z,11.37
2019-01-15T01:34:51.670Z,12.93
2019-01-15T01:37:22.292Z,12.10
2019-01-15T01:39:52.932Z,14.13
2019-01-15T01:42:29.399Z,11.20
2019-01-15T01:44:55.460Z,14.90
2019-01-15T01:47:26.028Z,11.20
2019-01-15T01:49:56.380Z,14.17
2019-01-15T01:52:26.640Z,10.20
2019-01-15T01:54:57.255Z,10.57
2019-01-15T01:57:27.928Z,15.20
2019-01-15T01:59:58.503Z,11.13
2019-01-15T02:02:29.108Z,18.67
2019-01-15T02:04:59.736Z,17.27
2019-01-15T02:07:30.297Z,16.17
2019-01-15T02:10:01.028Z,12.03
2019-01-15T02:12:36.923Z,10.37
2019-01-15T02:15:08.421Z,13.23
2019-01-15T02:17:39.139Z,14.40
2019-01-15T02:20:11.658Z,12.13
2019-01-15T02:22:42.263Z,18.53
2019-01-15T02:25:12.894Z,12.67
2019-01-15T02:27:45.061Z,12.23
2019-01-15T02:30:20.274Z,12.00
2019-01-15T02:32:50.928Z,10.77
2019-01-15T02:35:21.540Z,14.10
2019-01-15T02:37:52.199Z,16.10
2019-01-15T02:40:22.821Z,14.90
2019-01-15T02:42:53.111Z,12.43
2019-01-15T02:45:23.671Z,9.23
2019-01-15T02:47:54.310Z,15.07
2019-01-15T02:50:24.947Z,10.73
2019-01-15T02:52:55.577Z,14.13
2019-01-15T02:55:26.102Z,11.50
2019-01-15T02:57:56.636Z,13.57
2019-01-15T03:00:29.034Z,13.70
2019-01-15T03:02:59.351Z,12.10
2019-01-15T03:05:29.956Z,14.63
2019-01-15T03:08:00.577Z,14.93
2019-01-15T03:10:31.118Z,12.33
2019-01-15T03:13:01.743Z,14.10
2019-01-15T03:15:32.277Z,12.70
2019-01-15T03:18:02.910Z,13.20
2019-01-15T03:20:33.438Z,12.47
2019-01-15T03:23:03.997Z,9.73
2019-01-15T03:25:34.604Z,11.63
2019-01-15T03:28:05.336Z,9.70
2019-01-15T03:30:35.870Z,14.00
2019-01-15T03:33:06.522Z,12.57
2019-01-15T03:35:37.134Z,9.80
2019-01-15T03:38:07.728Z,11.13
2019-01-15T03:40:38.312Z,13.83
2019-01-15T03:43:08.941Z,9.67
2019-01-15T03:45:39.574Z,10.77
2019-01-15T03:48:10.245Z,9.90
2019-01-15T03:50:42.836Z,10.87
2019-01-15T03:53:13.557Z,14.20
2019-01-15T03:55:44.250Z,11.43
2019-01-15T03:58:14.989Z,9.33
2019-01-15T04:00:45.617Z,14.23
2019-01-15T04:03:16.407Z,14.23
2019-01-15T04:05:46.977Z,16.00
2019-01-15T04:08:17.592Z,12.00
2019-01-15T04:10:48.111Z,14.63
2019-01-15T04:13:18.786Z,17.60
2019-01-15T04:15:49.390Z,15.97
2019-01-15T04:18:20.222Z,15.50
2019-01-15T04:20:51.119Z,10.83
2019-01-15T04:23:24.351Z,15.10
2019-01-15T04:25:54.994Z,10.80
2019-01-15T04:28:25.637Z,12.37
2019-01-15T04:30:56.176Z,13.50
2019-01-15T04:33:27.374Z,11.43
2019-01-15T04:35:58.108Z,17.93
2019-01-15T04:38:28.838Z,14.37
2019-01-15T04:40:59.755Z,12.50
2019-01-15T04:43:30.584Z,16.33
2019-01-15T04:46:01.235Z,15.73
2019-01-15T04:48:31.968Z,17.43
2019-01-15T04:51:02.581Z,18.43
2019-01-15T04:53:33.198Z,8.80
2019-01-15T04:56:03.808Z,10.37
2019-01-15T04:58:35.014Z,15.00
2019-01-15T05:01:05.712Z,16.23
2019-01-15T05:03:40.017Z,14.17
2019-01-15T05:06:10.649Z,15.77
2019-01-15T05:08:41.060Z,23.20
2019-01-15T05:11:11.691Z,10.27
2019-01-15T05:13:42.013Z,16.03
2019-01-15T05:16:12.609Z,10.83
2019-01-15T05:18:42.853Z,13.77
2019-01-15T05:21:13.521Z,10.43
2019-01-15T05:23:44.198Z,10.07
2019-01-15T05:26:14.967Z,14.43
2019-01-15T05:28:45.601Z,11.40
2019-01-15T05:31:16.232Z,16.33
2019-01-15T05:33:46.877Z,17.03
2019-01-15T05:36:18.646Z,11.60
2019-01-15T05:38:49.255Z,10.37
2019-01-15T05:41:19.574Z,10.07
2019-01-15T05:43:50.244Z,11.50
2019-01-15T05:46:20.513Z,10.97
2019-01-15T05:48:51.576Z,10.70
2019-01-15T05:51:23.853Z,8.47
2019-01-15T05:53:54.579Z,12.07
2019-01-15T05:56:25.012Z,13.53
2019-01-15T05:58:55.390Z,10.30
2019-01-15T06:01:26.050Z,8.83
2019-01-15T06:03:56.585Z,11.97
2019-01-15T06:06:27.260Z,11.43
2019-01-15T06:08:57.852Z,15.07
2019-01-15T06:11:28.366Z,13.30
2019-01-15T06:13:59.010Z,12.57
2019-01-15T06:16:29.647Z,12.63
2019-01-15T06:19:00.272Z,11.37
2019-01-15T06:21:30.799Z,14.50
2019-01-15T06:24:01.192Z,12.03
2019-01-15T06:26:33.283Z,11.87
2019-01-15T06:29:04.443Z,13.00
2019-01-15T06:31:35.099Z,9.50
2019-01-15T06:34:05.727Z,13.07
2019-01-15T06:36:36.447Z,11.27
2019-01-15T06:39:08.536Z,12.53
2019-01-15T06:41:39.141Z,9.77
2019-01-15T06:44:09.817Z,11.40
2019-01-15T06:46:40.631Z,12.80
2019-01-15T06:49:11.273Z,11.83
2019-01-15T06:51:41.876Z,10.70
2019-01-15T06:54:12.526Z,8.87
2019-01-15T06:56:44.311Z,12.63
2019-01-15T06:59:15.002Z,10.23
2019-01-15T07:01:45.635Z,13.13
2019-01-15T07:04:16.316Z,9.67
2019-01-15T07:06:46.999Z,11.90
2019-01-15T07:09:17.516Z,14.30
2019-01-15T07:11:47.793Z,15.20
2019-01-15T07:14:20.127Z,9.07
2019-01-15T07:16:50.850Z,9.87
2019-01-15T07:19:23.472Z,9.60
2019-01-15T07:21:54.090Z,11.93
2019-01-15T07:24:26.707Z,6.07
2019-01-15T07:26:57.272Z,7.20
2019-01-15T07:29:30.969Z,12.90
2019-01-15T07:32:01.854Z,12.30
2019-01-15T07:34:32.542Z,9.07
2019-01-15T07:37:03.177Z,12.30
2019-01-15T07:39:33.813Z,12.97
2019-01-15T07:42:07.420Z,7.70
2019-01-15T07:44:38.134Z,7.10
2019-01-15T07:47:08.807Z,13.73
2019-01-15T07:49:39.430Z,10.37
2019-01-15T07:52:10.152Z,8.80
2019-01-15T07:54:43.588Z,9.83
2019-01-15T07:57:14.241Z,8.47
2019-01-15T07:59:44.918Z,8.03
2019-01-15T08:02:16.576Z,12.73
2019-01-15T08:04:47.288Z,8.67
2019-01-15T08:07:19.183Z,10.53
2019-01-15T08:09:49.788Z,5.80
2019-01-15T08:12:20.423Z,14.83
2019-01-15T08:14:51.050Z,11.97
2019-01-15T08:17:21.609Z,11.67
2019-01-15T08:19:52.315Z,10.53
2019-01-15T08:22:22.946Z,6.90
2019-01-15T08:24:53.465Z,8.23
2019-01-15T08:27:25.227Z,9.47
2019-01-15T08:29:55.882Z,9.20
2019-01-15T08:32:26.504Z,6.77
2019-01-15T08:34:56.877Z,9.27
2019-01-15T08:37:27.555Z,14.17
2019-01-15T08:39:58.178Z,8.10
2019-01-15T08:42:28.739Z,12.07
2019-01-15T08:44:59.689Z,7.40
2019-01-15T08:47:33.086Z,7.60
2019-01-15T08:50:09.536Z,7.73
2019-01-15T08:52:43.559Z,7.17
2019-01-15T08:55:15.795Z,7.20
2019-01-15T08:57:46.323Z,6.73
2019-01-15T09:00:16.855Z,6.87
2019-01-15T09:02:47.398Z,8.17
2019-01-15T09:05:18.036Z,13.13
2019-01-15T09:07:48.415Z,10.33
2019-01-15T09:10:19.378Z,7.90
2019-01-15T09:12:49.916Z,6.27
2019-01-15T09:15:23.298Z,12.07
2019-01-15T09:17:53.941Z,10.43
2019-01-15T09:20:24.585Z,9.10
2019-01-15T09:22:55.622Z,8.17
2019-01-15T09:25:26.353Z,10.33
2019-01-15T09:27:59.221Z,14.33
2019-01-15T09:30:29.857Z,6.13
2019-01-15T09:33:00.421Z,11.50
2019-01-15T09:35:31.929Z,10.40
2019-01-15T09:38:03.343Z,10.80
2019-01-15T09:40:34.054Z,11.40
2019-01-15T09:43:04.572Z,8.57
2019-01-15T09:45:35.825Z,9.83
2019-01-15T09:48:08.800Z,8.13
2019-01-15T09:50:39.157Z,7.13
2019-01-15T09:53:13.046Z,10.50
2019-01-15T09:55:43.660Z,12.03
2019-01-15T09:58:13.883Z,8.80
2019-01-15T10:00:44.709Z,9.70
2019-01-15T10:03:15.455Z,9.57
2019-01-15T10:05:46.212Z,7.10
2019-01-15T10:08:16.822Z,8.83
2019-01-15T10:10:47.477Z,11.23
2019-01-15T10:13:18.143Z,9.90
2019-01-15T10:15:48.843Z,11.30
2019-01-15T10:18:19.502Z,13.67
2019-01-15T10:20:49.787Z,9.90
2019-01-15T10:23:20.936Z,9.33
2019-01-15T10:25:54.039Z,11.03
2019-01-15T10:28:24.778Z,10.77
2019-01-15T10:31:13.718Z,8.93
2019-01-15T10:33:47.523Z,12.53
2019-01-15T10:36:19.016Z,12.53
2019-01-15T10:38:49.913Z,8.33
2019-01-15T10:41:20.181Z,9.07
2019-01-15T10:43:50.704Z,10.87
2019-01-15T10:46:21.464Z,11.20
2019-01-15T10:48:51.726Z,8.97
2019-01-15T10:51:22.477Z,10.20
2019-01-15T10:53:53.100Z,11.33
2019-01-15T10:56:23.835Z,11.60
2019-01-15T10:58:54.570Z,11.70
2019-01-15T11:01:25.277Z,8.37
2019-01-15T11:03:55.838Z,9.00
2019-01-15T11:06:28.105Z,10.37
2019-01-15T11:08:58.735Z,10.93
2019-01-15T11:11:28.975Z,11.33
2019-01-15T11:13:59.569Z,8.60
2019-01-15T11:16:31.649Z,13.93
2019-01-15T11:19:02.276Z,13.07
2019-01-15T11:21:33.003Z,8.03
2019-01-15T11:24:05.248Z,10.77
2019-01-15T11:26:38.779Z,11.30
2019-01-15T11:29:09.494Z,8.60
2019-01-15T11:31:40.128Z,11.07
2019-01-15T11:34:14.022Z,10.73
2019-01-15T11:36:46.411Z,9.40
2019-01-15T11:39:16.945Z,10.73
2019-01-15T11:41:47.717Z,10.90
2019-01-15T11:44:20.885Z,14.40
2019-01-15T11:46:51.247Z,13.43
2019-01-15T11:49:21.827Z,11.37
2019-01-15T11:51:52.457Z,9.57
2019-01-15T11:54:24.743Z,14.60
2019-01-15T11:56:55.362Z,13.20
2019-01-15T11:59:26.203Z,13.67
2019-01-15T12:01:57.869Z,11.23
2019-01-15T12:04:32.900Z,16.87
2019-01-15T12:07:10.485Z,14.77
2019-01-15T12:09:42.947Z,13.03
2019-01-15T12:12:16.983Z,12.53
2019-01-15T12:14:55.181Z,15.07
2019-01-15T12:17:30.122Z,14.00
2019-01-15T12:20:11.090Z,14.70
2019-01-15T12:22:58.298Z,13.33
2019-01-15T12:25:35.877Z,9.07
2019-01-15T12:28:24.445Z,13.73
2019-01-15T12:31:13.213Z,15.63
2019-01-15T12:34:01.784Z,12.43
2019-01-15T12:36:40.371Z,19.30
2019-01-15T12:39:21.660Z,15.53
2019-01-15T12:41:59.696Z,17.17
2019-01-15T12:44:42.410Z,18.00
2019-01-15T12:47:16.416Z,20.30
2019-01-15T12:50:00.447Z,18.30
2019-01-15T12:52:41.613Z,15.83
2019-01-15T12:55:14.506Z,15.23
2019-01-15T12:57:46.387Z,14.13
2019-01-15T13:00:24.486Z,16.63
2019-01-15T13:03:07.455Z,17.27
2019-01-15T13:05:51.162Z,18.67
2019-01-15T13:08:23.426Z,15.73
2019-01-15T13:10:59.402Z,22.37
2019-01-15T13:13:31.632Z,20.50
2019-01-15T13:16:06.289Z,19.47
2019-01-15T13:18:50.851Z,18.63
2019-01-15T13:21:26.268Z,20.07
2019-01-15T13:24:14.917Z,23.10
2019-01-15T13:26:53.032Z,24.60
2019-01-15T13:29:27.890Z,24.40
2019-01-15T13:32:07.156Z,21.97
2019-01-15T13:34:48.378Z,23.90
2019-01-15T13:37:20.646Z,22.67
2019-01-15T13:39:52.916Z,24.77
2019-01-15T13:42:31.019Z,23.73
2019-01-15T13:45:18.754Z,23.47
2019-01-15T13:48:00.258Z,26.50
2019-01-15T13:50:35.391Z,26.20
2019-01-15T13:53:23.941Z,22.93
2019-01-15T13:55:56.198Z,26.07
2019-01-15T13:58:44.744Z,24.43
2019-01-15T14:01:28.710Z,24.57
2019-01-15T14:04:04.032Z,24.43
2019-01-15T14:06:53.676Z,25.93
2019-01-15T14:09:25.983Z,25.43
2019-01-15T14:12:00.915Z,24.40
2019-01-15T14:14:33.210Z,24.17
2019-01-15T14:17:11.307Z,32.10
2019-01-15T14:20:00.270Z,32.67
2019-01-15T14:22:38.356Z,23.93
2019-01-15T14:25:14.925Z,27.70
2019-01-15T14:27:47.188Z,26.13
2019-01-15T14:30:20.101Z,25.77
2019-01-15T14:32:55.895Z,26.87
2019-01-15T14:35:32.621Z,28.20
2019-01-15T14:38:17.191Z,26.73
2019-01-15T14:40:57.854Z,28.20
2019-01-15T14:43:46.395Z,26.50
2019-01-15T14:46:28.920Z,27.20
2019-01-15T14:49:06.903Z,28.83
2019-01-15T14:51:39.179Z,27.50
2019-01-15T14:54:17.177Z,27.23
2019-01-15T14:56:54.065Z,25.00
2019-01-15T14:59:38.301Z,27.30
2019-01-15T15:02:25.831Z,26.23
2019-01-15T15:04:58.101Z,28.37
2019-01-15T15:07:32.713Z,26.43
2019-01-15T15:10:14.128Z,28.47
2019-01-15T15:12:49.728Z,26.00
2019-01-15T15:15:24.914Z,24.20
2019-01-15T15:18:12.216Z,30.27
2019-01-15T15:20:51.103Z,25.10
2019-01-15T15:23:47.539Z,26.30
2019-01-15T15:26:42.630Z,33.63
2019-01-15T15:29:17.880Z,26.70
2019-01-15T15:32:05.793Z,26.37
2019-01-15T15:34:44.996Z,27.47
2019-01-15T15:37:26.411Z,29.63
2019-01-15T15:40:10.695Z,28.87
2019-01-15T15:42:42.907Z,30.73
2019-01-15T15:45:33.309Z,32.27
2019-01-15T15:48:05.569Z,32.80
2019-01-15T15:50:40.429Z,32.47
2019-01-15T15:53:29.171Z,33.53
2019-01-15T15:56:16.700Z,34.00
2019-01-15T15:58:52.484Z,34.03
2019-01-15T16:01:31.026Z,35.00
2019-01-15T16:04:19.645Z,36.20
2019-01-15T16:06:51.988Z,37.50
2019-01-15T16:09:28.260Z,36.87
2019-01-15T16:12:09.549Z,33.67
2019-01-15T16:14:57.571Z,35.37
2019-01-15T16:17:34.652Z,34.73
2019-01-15T16:20:15.794Z,32.27
2019-01-15T16:22:48.042Z,34.87
2019-01-15T16:25:20.334Z,36.63
2019-01-15T16:27:52.646Z,34.10
2019-01-15T16:30:31.064Z,38.70
2019-01-15T16:33:38.794Z,34.03
2019-01-15T16:36:47.216Z,34.67
2019-01-15T16:39:40.438Z,35.70
2019-01-15T16:42:11.956Z,34.03
2019-01-15T16:44:51.753Z,32.77
2019-01-15T16:47:40.278Z,33.30
2019-01-15T16:50:12.553Z,32.93
2019-01-15T16:52:49.222Z,35.07
2019-01-15T16:55:28.811Z,35.97
2019-01-15T16:58:24.114Z,28.83
2019-01-15T17:01:05.898Z,29.90
2019-01-15T17:03:56.841Z,30.17
2019-01-15T17:06:31.851Z,30.10
2019-01-15T17:09:12.552Z,28.17
2019-01-15T17:11:53.229Z,32.27
2019-01-15T17:14:37.253Z,29.73
2019-01-15T17:17:09.582Z,26.33
2019-01-15T17:19:41.845Z,27.17
2019-01-15T17:22:17.214Z,28.57
2019-01-15T17:24:58.454Z,27.33
2019-01-15T17:27:39.220Z,24.73
2019-01-15T17:30:30.650Z,25.20
2019-01-15T17:33:06.020Z,26.47
2019-01-15T17:35:41.721Z,24.90
2019-01-15T17:38:30.535Z,36.20
2019-01-15T17:41:17.846Z,24.00
2019-01-15T17:43:50.505Z,22.87
2019-01-15T17:46:28.779Z,22.40
2019-01-15T17:49:01.201Z,20.27
2019-01-15T17:51:33.470Z,20.97
2019-01-15T17:54:08.837Z,19.03
2019-01-15T17:56:40.829Z,21.97
2019-01-15T17:59:29.853Z,22.73
2019-01-15T18:02:14.090Z,24.90
2019-01-15T18:05:05.875Z,21.80
2019-01-15T18:07:37.965Z,20.70
2019-01-15T18:10:15.533Z,22.17
2019-01-15T18:13:03.830Z,22.67
2019-01-15T18:15:36.174Z,23.33
2019-01-15T18:18:28.129Z,25.80
2019-01-15T18:21:09.604Z,22.63
2019-01-15T18:23:58.468Z,23.27
2019-01-15T18:26:39.653Z,23.07
2019-01-15T18:29:27.737Z,24.37
2019-01-15T18:32:18.521Z,21.07
2019-01-15T18:34:48.994Z,19.60
2019-01-15T18:37:39.108Z,20.77
2019-01-15T18:40:15.769Z,18.87
2019-01-15T18:42:50.688Z,19.50
2019-01-15T18:45:25.745Z,20.63
2019-01-15T18:48:07.163Z,21.20
2019-01-15T18:50:51.434Z,18.60
2019-01-15T18:53:27.062Z,19.37
2019-01-15T18:56:08.391Z,22.60
2019-01-15T18:58:43.478Z,18.40
2019-01-15T19:01:15.858Z,19.10
2019-01-15T19:03:48.282Z,18.17
2019-01-15T19:06:25.202Z,19.60
2019-01-15T19:09:00.540Z,18.07
2019-01-15T19:11:41.817Z,19.43
2019-01-15T19:14:26.350Z,16.97
2019-01-15T19:17:10.844Z,17.20
2019-01-15T19:19:52.443Z,16.53
2019-01-15T19:22:25.275Z,16.03
2019-01-15T19:25:09.120Z,17.30
2019-01-15T19:27:44.220Z,19.50
2019-01-15T19:30:34.365Z,19.57
2019-01-15T19:33:09.382Z,18.03
2019-01-15T19:35:58.182Z,20.07
2019-01-15T19:38:30.570Z,18.77
2019-01-15T19:41:04.688Z,23.10
2019-01-15T19:43:46.294Z,20.97
2019-01-15T19:46:18.706Z,19.37
2019-01-15T19:48:56.693Z,18.00
2019-01-15T19:51:45.503Z,19.83
2019-01-15T19:54:17.905Z,19.77
2019-01-15T19:57:02.736Z,19.77
2019-01-15T19:59:52.788Z,18.00
2019-01-15T20:02:25.213Z,19.97
2019-01-15T20:05:14.921Z,20.83
2019-01-15T20:07:46.515Z,22.00
2019-01-15T20:10:36.743Z,19.60
2019-01-15T20:13:27.533Z,23.60
2019-01-15T20:16:16.398Z,20.57
2019-01-15T20:18:48.869Z,20.17
2019-01-15T20:21:36.052Z,21.70
2019-01-15T20:24:26.380Z,20.93
2019-01-15T20:27:01.340Z,20.10
2019-01-15T20:29:42.692Z,20.63
2019-01-15T20:32:18.042Z,20.67
2019-01-15T20:35:07.035Z,22.33
2019-01-15T20:37:48.627Z,22.47
2019-01-15T20:40:25.408Z,21.93
2019-01-15T20:43:02.863Z,24.17
2019-01-15T20:45:41.547Z,21.47
2019-01-15T20:48:13.959Z,21.80
2019-01-15T20:51:03.492Z,21.47
2019-01-15T20:53:36.221Z,20.13
2019-01-15T20:56:09.266Z,20.90
2019-01-15T20:58:56.954Z,19.33
2019-01-15T21:01:38.092Z,20.30
2019-01-15T21:04:16.048Z,19.27
2019-01-15T21:07:06.635Z,22.20
2019-01-15T21:09:44.709Z,20.80
2019-01-15T21:12:17.254Z,20.47
2019-01-15T21:15:06.520Z,21.07
2019-01-15T21:17:55.182Z,23.57
2019-01-15T21:20:27.567Z,20.83
2019-01-15T21:23:00.166Z,16.27
2019-01-15T21:25:41.817Z,19.43
2019-01-15T21:28:30.489Z,18.50
2019-01-15T21:31:18.201Z,18.53
2019-01-15T21:34:08.513Z,17.30
2019-01-15T21:36:44.125Z,18.80
2019-01-15T21:39:22.399Z,17.50
2019-01-15T21:41:55.016Z,16.70
2019-01-15T21:44:27.030Z,16.50
2019-01-15T21:46:59.373Z,14.67
2019-01-15T21:49:31.870Z,16.33
2019-01-15T21:52:13.029Z,17.07
2019-01-15T21:55:01.784Z,12.93
2019-01-15T21:57:50.540Z,14.43
2019-01-15T22:00:25.626Z,15.67
2019-01-15T22:03:16.888Z,14.20
2019-01-15T22:05:58.069Z,15.73
2019-01-15T22:08:30.348Z,15.30
2019-01-15T22:11:05.833Z,17.60
2019-01-15T22:13:54.641Z,15.93
2019-01-15T22:16:27.009Z,16.67
2019-01-15T22:19:07.895Z,18.67
2019-01-15T22:21:52.138Z,18.47
2019-01-15T22:24:27.192Z,19.17
2019-01-15T22:27:02.563Z,19.97
2019-01-15T22:29:52.804Z,18.97
2019-01-15T22:32:43.395Z,17.87
2019-01-15T22:35:15.683Z,18.50
2019-01-15T22:37:54.118Z,22.73
2019-01-15T22:40:38.347Z,21.50
2019-01-15T22:43:13.052Z,20.10
2019-01-15T22:46:00.430Z,21.73
2019-01-15T22:48:40.226Z,22.37
2019-01-15T22:51:30.085Z,21.67
2019-01-15T22:54:02.396Z,24.77
2019-01-15T22:56:52.992Z,26.27
2019-01-15T22:59:40.535Z,22.93
2019-01-15T23:02:16.763Z,22.10
2019-01-15T23:04:53.899Z,23.17
2019-01-15T23:07:33.644Z,23.63
2019-01-15T23:10:08.739Z,23.13
2019-01-15T23:12:43.571Z,23.97
2019-01-15T23:15:18.527Z,21.90
2019-01-15T23:17:50.434Z,21.17
2019-01-15T23:20:34.308Z,22.83
2019-01-15T23:23:15.691Z,22.33
2019-01-15T23:26:02.802Z,21.77
2019-01-15T23:28:46.969Z,21.63
2019-01-15T23:31:21.919Z,19.53
2019-01-15T23:34:10.538Z,22.37
2019-01-15T23:36:42.810Z,19.37
2019-01-15T23:39:20.727Z,19.53
2019-01-15T23:41:55.560Z,19.60
2019-01-15T23:44:36.872Z,17.97
2019-01-15T23:47:12.447Z,18.83
2019-01-15T23:49:54.111Z,18.93
2019-01-15T23:52:31.736Z,18.33
2019-01-15T23:55:04.135Z,16.03
2019-01-15T23:57:36.503Z,16.93
